sensor_id;sensor_type;location;lat;lon;timestamp;P1;durP1;ratioP1;P2;durP2;ratioP2
11653;SDS011;5883;48.818;9.114;2023-11-21T00:02:36;3.17;;;1.75;;
11653;SDS011;5883;48.818;9.114;2023-11-21T00:05:22;3.83;;;1.50;;
11653;SDS011;5883;48.818;9.114;2023-11-21T00:08:06;3.78;;;1.73;;
11653;SDS011;5883;48.818;9.114;2023-11-21T00:10:53;4.82;;;1.83;;
11653;SDS011;5883;48.818;9.114;2023-11-21T00:13:38;2.58;;;1.75;;
11653;SDS011;5883;48.818;9.114;2023-11-21T00:16:23;4.93;;;1.75;;
11653;SDS011;5883;48.818;9.114;2023-11-21T00:19:09;6.47;;;1.80;;
11653;SDS011;5883;48.818;9.114;2023-11-21T00:21:54;3.20;;;1.45;;
11653;SDS011;5883;48.818;9.114;2023-11-21T00:24:40;4.35;;;1.50;;
11653;SDS011;5883;48.818;9.114;2023-11-21T00:27:26;3.95;;;1.73;;
11653;SDS011;5883;48.818;9.114;2023-11-21T00:30:12;4.30;;;1.90;;
11653;SDS011;5883;48.818;9.114;2023-11-21T00:32:57;3.65;;;1.77;;
11653;SDS011;5883;48.818;9.114;2023-11-21T00:35:42;2.53;;;1.40;;
11653;SDS011;5883;48.818;9.114;2023-11-21T00:38:27;2.05;;;1.30;;
11653;SDS011;5883;48.818;9.114;2023-11-21T00:41:12;6.55;;;1.98;;
11653;SDS011;5883;48.818;9.114;2023-11-21T00:43:58;4.53;;;1.30;;
11653;SDS011;5883;48.818;9.114;2023-11-21T00:46:44;2.35;;;1.35;;
11653;SDS011;5883;48.818;9.114;2023-11-21T00:49:29;4.57;;;1.60;;
11653;SDS011;5883;48.818;9.114;2023-11-21T00:52:15;6.18;;;2.13;;
11653;SDS011;5883;48.818;9.114;2023-11-21T00:55:01;5.50;;;1.73;;
11653;SDS011;5883;48.818;9.114;2023-11-21T00:57:46;4.70;;;1.75;;
11653;SDS011;5883;48.818;9.114;2023-11-21T01:00:33;4.68;;;2.05;;
11653;SDS011;5883;48.818;9.114;2023-11-21T01:03:18;3.80;;;1.90;;
11653;SDS011;5883;48.818;9.114;2023-11-21T01:06:03;7.55;;;1.92;;
11653;SDS011;5883;48.818;9.114;2023-11-21T01:08:51;4.15;;;1.90;;
11653;SDS011;5883;48.818;9.114;2023-11-21T01:11:36;5.40;;;1.90;;
11653;SDS011;5883;48.818;9.114;2023-11-21T01:14:21;3.28;;;1.55;;
11653;SDS011;5883;48.818;9.114;2023-11-21T01:17:08;4.45;;;1.90;;
11653;SDS011;5883;48.818;9.114;2023-11-21T01:19:53;3.10;;;1.42;;
11653;SDS011;5883;48.818;9.114;2023-11-21T01:22:39;3.63;;;1.88;;
11653;SDS011;5883;48.818;9.114;2023-11-21T01:25:25;3.63;;;1.23;;
11653;SDS011;5883;48.818;9.114;2023-11-21T01:28:10;3.92;;;1.50;;
11653;SDS011;5883;48.818;9.114;2023-11-21T01:30:55;3.92;;;1.60;;
11653;SDS011;5883;48.818;9.114;2023-11-21T01:33:43;2.75;;;1.40;;
11653;SDS011;5883;48.818;9.114;2023-11-21T01:36:29;6.72;;;1.58;;
11653;SDS011;5883;48.818;9.114;2023-11-21T01:39:15;3.05;;;1.52;;
11653;SDS011;5883;48.818;9.114;2023-11-21T01:42:07;2.40;;;1.50;;
11653;SDS011;5883;48.818;9.114;2023-11-21T01:44:52;2.58;;;1.30;;
11653;SDS011;5883;48.818;9.114;2023-11-21T01:47:38;5.60;;;1.58;;
11653;SDS011;5883;48.818;9.114;2023-11-21T01:50:26;2.22;;;1.40;;
11653;SDS011;5883;48.818;9.114;2023-11-21T01:53:12;5.47;;;1.20;;
11653;SDS011;5883;48.818;9.114;2023-11-21T01:55:58;4.10;;;1.50;;
11653;SDS011;5883;48.818;9.114;2023-11-21T01:58:43;5.63;;;1.40;;
11653;SDS011;5883;48.818;9.114;2023-11-21T02:01:30;1.52;;;1.27;;
11653;SDS011;5883;48.818;9.114;2023-11-21T02:04:15;2.47;;;1.58;;
11653;SDS011;5883;48.818;9.114;2023-11-21T02:07:01;2.67;;;1.73;;
11653;SDS011;5883;48.818;9.114;2023-11-21T02:09:49;3.70;;;1.50;;
11653;SDS011;5883;48.818;9.114;2023-11-21T02:12:36;1.70;;;1.33;;
11653;SDS011;5883;48.818;9.114;2023-11-21T02:15:22;3.33;;;1.40;;
11653;SDS011;5883;48.818;9.114;2023-11-21T02:18:11;3.45;;;1.40;;
11653;SDS011;5883;48.818;9.114;2023-11-21T02:20:56;2.70;;;1.23;;
11653;SDS011;5883;48.818;9.114;2023-11-21T02:23:42;3.88;;;1.45;;
11653;SDS011;5883;48.818;9.114;2023-11-21T02:26:28;3.28;;;1.55;;
11653;SDS011;5883;48.818;9.114;2023-11-21T02:29:13;6.10;;;1.40;;
11653;SDS011;5883;48.818;9.114;2023-11-21T02:32:01;1.48;;;1.33;;
11653;SDS011;5883;48.818;9.114;2023-11-21T02:34:47;2.40;;;1.30;;
11653;SDS011;5883;48.818;9.114;2023-11-21T02:37:34;5.85;;;1.58;;
11653;SDS011;5883;48.818;9.114;2023-11-21T02:40:21;2.00;;;1.30;;
11653;SDS011;5883;48.818;9.114;2023-11-21T02:43:08;2.45;;;1.45;;
11653;SDS011;5883;48.818;9.114;2023-11-21T02:45:53;2.40;;;1.30;;
11653;SDS011;5883;48.818;9.114;2023-11-21T02:48:40;2.35;;;1.50;;
11653;SDS011;5883;48.818;9.114;2023-11-21T02:51:25;2.17;;;1.33;;
11653;SDS011;5883;48.818;9.114;2023-11-21T02:54:10;2.15;;;1.55;;
11653;SDS011;5883;48.818;9.114;2023-11-21T02:56:57;6.45;;;1.27;;
11653;SDS011;5883;48.818;9.114;2023-11-21T02:59:42;1.90;;;1.13;;
11653;SDS011;5883;48.818;9.114;2023-11-21T03:02:30;4.18;;;1.30;;
11653;SDS011;5883;48.818;9.114;2023-11-21T03:05:16;2.22;;;1.17;;
11653;SDS011;5883;48.818;9.114;2023-11-21T03:08:01;1.90;;;1.20;;
11653;SDS011;5883;48.818;9.114;2023-11-21T03:10:46;2.05;;;1.20;;
11653;SDS011;5883;48.818;9.114;2023-11-21T03:13:32;2.08;;;1.10;;
11653;SDS011;5883;48.818;9.114;2023-11-21T03:16:18;2.13;;;1.27;;
11653;SDS011;5883;48.818;9.114;2023-11-21T03:19:04;2.55;;;1.20;;
11653;SDS011;5883;48.818;9.114;2023-11-21T03:21:49;2.85;;;1.02;;
11653;SDS011;5883;48.818;9.114;2023-11-21T03:24:36;1.88;;;1.00;;
11653;SDS011;5883;48.818;9.114;2023-11-21T03:27:21;1.08;;;0.95;;
11653;SDS011;5883;48.818;9.114;2023-11-21T03:30:08;2.13;;;1.15;;
11653;SDS011;5883;48.818;9.114;2023-11-21T03:32:54;3.38;;;1.10;;
11653;SDS011;5883;48.818;9.114;2023-11-21T03:35:39;3.13;;;1.30;;
11653;SDS011;5883;48.818;9.114;2023-11-21T03:38:25;2.10;;;1.10;;
11653;SDS011;5883;48.818;9.114;2023-11-21T03:41:13;1.05;;;0.90;;
11653;SDS011;5883;48.818;9.114;2023-11-21T03:43:58;3.17;;;1.20;;
11653;SDS011;5883;48.818;9.114;2023-11-21T03:46:45;1.10;;;1.00;;
11653;SDS011;5883;48.818;9.114;2023-11-21T03:49:30;6.25;;;1.23;;
11653;SDS011;5883;48.818;9.114;2023-11-21T03:52:18;1.83;;;1.00;;
11653;SDS011;5883;48.818;9.114;2023-11-21T03:55:06;1.45;;;1.10;;
11653;SDS011;5883;48.818;9.114;2023-11-21T03:57:51;2.40;;;1.15;;
11653;SDS011;5883;48.818;9.114;2023-11-21T04:00:36;1.30;;;1.00;;
11653;SDS011;5883;48.818;9.114;2023-11-21T04:03:22;2.70;;;1.25;;
11653;SDS011;5883;48.818;9.114;2023-11-21T04:06:07;2.45;;;1.10;;
11653;SDS011;5883;48.818;9.114;2023-11-21T04:08:53;2.53;;;1.10;;
11653;SDS011;5883;48.818;9.114;2023-11-21T04:11:38;2.70;;;1.00;;
11653;SDS011;5883;48.818;9.114;2023-11-21T04:14:23;2.20;;;1.20;;
11653;SDS011;5883;48.818;9.114;2023-11-21T04:17:08;1.77;;;0.95;;
11653;SDS011;5883;48.818;9.114;2023-11-21T04:19:55;2.83;;;1.25;;
11653;SDS011;5883;48.818;9.114;2023-11-21T04:22:40;2.63;;;1.10;;
11653;SDS011;5883;48.818;9.114;2023-11-21T04:25:27;1.10;;;0.93;;
11653;SDS011;5883;48.818;9.114;2023-11-21T04:28:12;2.97;;;1.05;;
11653;SDS011;5883;48.818;9.114;2023-11-21T04:30:59;1.15;;;1.05;;
11653;SDS011;5883;48.818;9.114;2023-11-21T04:33:44;1.05;;;0.95;;
11653;SDS011;5883;48.818;9.114;2023-11-21T04:36:31;1.85;;;1.15;;
11653;SDS011;5883;48.818;9.114;2023-11-21T04:39:19;1.27;;;1.00;;
11653;SDS011;5883;48.818;9.114;2023-11-21T04:42:04;2.25;;;1.10;;
11653;SDS011;5883;48.818;9.114;2023-11-21T04:44:49;1.20;;;1.10;;
11653;SDS011;5883;48.818;9.114;2023-11-21T04:47:38;2.33;;;1.10;;
11653;SDS011;5883;48.818;9.114;2023-11-21T04:50:27;1.67;;;1.15;;
11653;SDS011;5883;48.818;9.114;2023-11-21T04:53:16;1.48;;;0.90;;
11653;SDS011;5883;48.818;9.114;2023-11-21T04:56:01;1.08;;;0.95;;
11653;SDS011;5883;48.818;9.114;2023-11-21T04:58:46;1.60;;;1.10;;
11653;SDS011;5883;48.818;9.114;2023-11-21T05:01:31;3.35;;;1.40;;
11653;SDS011;5883;48.818;9.114;2023-11-21T05:04:16;1.23;;;1.10;;
11653;SDS011;5883;48.818;9.114;2023-11-21T05:07:01;3.33;;;1.10;;
11653;SDS011;5883;48.818;9.114;2023-11-21T05:09:47;1.88;;;1.20;;
11653;SDS011;5883;48.818;9.114;2023-11-21T05:12:32;2.45;;;1.25;;
11653;SDS011;5883;48.818;9.114;2023-11-21T05:15:18;2.00;;;1.20;;
11653;SDS011;5883;48.818;9.114;2023-11-21T05:18:04;1.17;;;1.08;;
11653;SDS011;5883;48.818;9.114;2023-11-21T05:20:50;1.48;;;1.00;;
11653;SDS011;5883;48.818;9.114;2023-11-21T05:23:35;1.27;;;1.10;;
11653;SDS011;5883;48.818;9.114;2023-11-21T05:26:22;3.10;;;1.10;;
11653;SDS011;5883;48.818;9.114;2023-11-21T05:29:07;1.50;;;1.40;;
11653;SDS011;5883;48.818;9.114;2023-11-21T05:31:57;3.78;;;1.50;;
11653;SDS011;5883;48.818;9.114;2023-11-21T05:34:42;1.60;;;1.50;;
11653;SDS011;5883;48.818;9.114;2023-11-21T05:37:28;1.55;;;1.42;;
11653;SDS011;5883;48.818;9.114;2023-11-21T05:40:13;2.30;;;1.50;;
11653;SDS011;5883;48.818;9.114;2023-11-21T05:43:00;1.40;;;1.30;;
11653;SDS011;5883;48.818;9.114;2023-11-21T05:45:45;1.55;;;1.30;;
11653;SDS011;5883;48.818;9.114;2023-11-21T05:48:30;2.17;;;1.23;;
11653;SDS011;5883;48.818;9.114;2023-11-21T05:51:16;2.05;;;1.40;;
11653;SDS011;5883;48.818;9.114;2023-11-21T05:54:01;2.03;;;1.10;;
11653;SDS011;5883;48.818;9.114;2023-11-21T05:56:46;1.52;;;1.30;;
11653;SDS011;5883;48.818;9.114;2023-11-21T05:59:33;1.88;;;1.02;;
11653;SDS011;5883;48.818;9.114;2023-11-21T06:02:18;1.83;;;1.50;;
11653;SDS011;5883;48.818;9.114;2023-11-21T06:05:03;1.70;;;1.40;;
11653;SDS011;5883;48.818;9.114;2023-11-21T06:07:49;3.88;;;1.30;;
11653;SDS011;5883;48.818;9.114;2023-11-21T06:10:34;1.75;;;1.33;;
11653;SDS011;5883;48.818;9.114;2023-11-21T06:13:19;1.63;;;1.52;;
11653;SDS011;5883;48.818;9.114;2023-11-21T06:16:09;1.40;;;1.30;;
11653;SDS011;5883;48.818;9.114;2023-11-21T06:18:59;3.33;;;1.23;;
11653;SDS011;5883;48.818;9.114;2023-11-21T06:21:45;1.70;;;1.30;;
11653;SDS011;5883;48.818;9.114;2023-11-21T06:24:30;2.33;;;2.13;;
11653;SDS011;5883;48.818;9.114;2023-11-21T06:27:15;2.20;;;2.00;;
11653;SDS011;5883;48.818;9.114;2023-11-21T06:30:00;3.30;;;2.00;;
11653;SDS011;5883;48.818;9.114;2023-11-21T06:32:47;2.40;;;2.03;;
11653;SDS011;5883;48.818;9.114;2023-11-21T06:35:32;2.28;;;1.90;;
11653;SDS011;5883;48.818;9.114;2023-11-21T06:38:18;3.92;;;1.95;;
11653;SDS011;5883;48.818;9.114;2023-11-21T06:41:04;2.83;;;1.77;;
11653;SDS011;5883;48.818;9.114;2023-11-21T06:43:52;1.95;;;1.60;;
11653;SDS011;5883;48.818;9.114;2023-11-21T06:46:37;2.63;;;1.67;;
11653;SDS011;5883;48.818;9.114;2023-11-21T06:49:27;4.68;;;1.90;;
11653;SDS011;5883;48.818;9.114;2023-11-21T06:52:12;2.17;;;1.58;;
11653;SDS011;5883;48.818;9.114;2023-11-21T06:54:57;3.08;;;1.63;;
11653;SDS011;5883;48.818;9.114;2023-11-21T06:57:46;2.70;;;1.80;;
11653;SDS011;5883;48.818;9.114;2023-11-21T07:00:31;4.15;;;1.70;;
11653;SDS011;5883;48.818;9.114;2023-11-21T07:03:16;4.70;;;1.65;;
11653;SDS011;5883;48.818;9.114;2023-11-21T07:06:04;4.13;;;1.70;;
11653;SDS011;5883;48.818;9.114;2023-11-21T07:08:49;4.18;;;1.60;;
11653;SDS011;5883;48.818;9.114;2023-11-21T07:11:34;4.03;;;1.60;;
11653;SDS011;5883;48.818;9.114;2023-11-21T07:14:19;2.03;;;1.83;;
11653;SDS011;5883;48.818;9.114;2023-11-21T07:17:05;5.53;;;1.90;;
11653;SDS011;5883;48.818;9.114;2023-11-21T07:19:52;2.50;;;2.00;;
11653;SDS011;5883;48.818;9.114;2023-11-21T07:22:42;1.90;;;1.70;;
11653;SDS011;5883;48.818;9.114;2023-11-21T07:25:28;2.53;;;1.83;;
11653;SDS011;5883;48.818;9.114;2023-11-21T07:28:13;3.08;;;1.83;;
11653;SDS011;5883;48.818;9.114;2023-11-21T07:31:01;4.97;;;1.85;;
11653;SDS011;5883;48.818;9.114;2023-11-21T07:33:49;2.70;;;2.03;;
11653;SDS011;5883;48.818;9.114;2023-11-21T07:36:34;3.03;;;2.28;;
11653;SDS011;5883;48.818;9.114;2023-11-21T07:39:21;3.97;;;2.80;;
11653;SDS011;5883;48.818;9.114;2023-11-21T07:42:06;3.42;;;2.60;;
11653;SDS011;5883;48.818;9.114;2023-11-21T07:44:51;4.68;;;2.17;;
11653;SDS011;5883;48.818;9.114;2023-11-21T07:47:36;3.22;;;1.88;;
11653;SDS011;5883;48.818;9.114;2023-11-21T07:50:22;5.07;;;2.55;;
11653;SDS011;5883;48.818;9.114;2023-11-21T07:53:07;3.83;;;2.15;;
11653;SDS011;5883;48.818;9.114;2023-11-21T07:55:54;3.67;;;2.00;;
11653;SDS011;5883;48.818;9.114;2023-11-21T07:58:39;3.67;;;2.10;;
11653;SDS011;5883;48.818;9.114;2023-11-21T08:01:24;3.40;;;1.60;;
11653;SDS011;5883;48.818;9.114;2023-11-21T08:04:11;6.57;;;1.60;;
11653;SDS011;5883;48.818;9.114;2023-11-21T08:06:56;1.63;;;1.42;;
11653;SDS011;5883;48.818;9.114;2023-11-21T08:09:45;4.75;;;1.63;;
11653;SDS011;5883;48.818;9.114;2023-11-21T08:12:34;4.35;;;2.00;;
11653;SDS011;5883;48.818;9.114;2023-11-21T08:15:19;1.73;;;1.63;;
11653;SDS011;5883;48.818;9.114;2023-11-21T08:18:04;2.03;;;1.48;;
11653;SDS011;5883;48.818;9.114;2023-11-21T08:20:51;2.35;;;1.83;;
11653;SDS011;5883;48.818;9.114;2023-11-21T08:23:39;3.30;;;1.80;;
11653;SDS011;5883;48.818;9.114;2023-11-21T08:26:24;2.67;;;1.50;;
11653;SDS011;5883;48.818;9.114;2023-11-21T08:29:12;2.75;;;1.55;;
11653;SDS011;5883;48.818;9.114;2023-11-21T08:31:57;1.52;;;1.40;;
11653;SDS011;5883;48.818;9.114;2023-11-21T08:34:43;1.80;;;1.40;;
11653;SDS011;5883;48.818;9.114;2023-11-21T08:37:29;1.80;;;1.50;;
11653;SDS011;5883;48.818;9.114;2023-11-21T08:40:16;4.38;;;1.67;;
11653;SDS011;5883;48.818;9.114;2023-11-21T08:43:02;2.78;;;1.70;;
11653;SDS011;5883;48.818;9.114;2023-11-21T08:45:49;2.50;;;1.40;;
11653;SDS011;5883;48.818;9.114;2023-11-21T08:48:35;1.20;;;1.10;;
11653;SDS011;5883;48.818;9.114;2023-11-21T08:51:22;1.27;;;1.17;;
11653;SDS011;5883;48.818;9.114;2023-11-21T08:54:07;1.60;;;1.48;;
11653;SDS011;5883;48.818;9.114;2023-11-21T08:56:53;2.97;;;1.40;;
11653;SDS011;5883;48.818;9.114;2023-11-21T08:59:38;2.33;;;1.52;;
11653;SDS011;5883;48.818;9.114;2023-11-21T09:02:25;1.20;;;1.10;;
11653;SDS011;5883;48.818;9.114;2023-11-21T09:05:11;2.45;;;1.30;;
11653;SDS011;5883;48.818;9.114;2023-11-21T09:07:56;1.30;;;1.20;;
11653;SDS011;5883;48.818;9.114;2023-11-21T09:10:41;2.53;;;1.50;;
11653;SDS011;5883;48.818;9.114;2023-11-21T09:13:31;1.65;;;1.23;;
11653;SDS011;5883;48.818;9.114;2023-11-21T09:16:16;4.65;;;1.10;;
11653;SDS011;5883;48.818;9.114;2023-11-21T09:19:02;1.67;;;1.20;;
11653;SDS011;5883;48.818;9.114;2023-11-21T09:21:49;3.95;;;1.35;;
11653;SDS011;5883;48.818;9.114;2023-11-21T09:24:34;1.20;;;1.00;;
11653;SDS011;5883;48.818;9.114;2023-11-21T09:27:20;1.40;;;1.30;;
11653;SDS011;5883;48.818;9.114;2023-11-21T09:30:06;1.20;;;1.10;;
11653;SDS011;5883;48.818;9.114;2023-11-21T09:32:53;4.57;;;1.25;;
11653;SDS011;5883;48.818;9.114;2023-11-21T09:35:41;2.10;;;1.30;;
11653;SDS011;5883;48.818;9.114;2023-11-21T09:38:27;2.55;;;1.10;;
11653;SDS011;5883;48.818;9.114;2023-11-21T09:41:15;2.45;;;1.20;;
11653;SDS011;5883;48.818;9.114;2023-11-21T09:44:03;1.33;;;1.23;;
11653;SDS011;5883;48.818;9.114;2023-11-21T09:46:53;1.08;;;1.00;;
11653;SDS011;5883;48.818;9.114;2023-11-21T09:49:39;2.58;;;1.00;;
11653;SDS011;5883;48.818;9.114;2023-11-21T09:52:25;3.67;;;2.30;;
11653;SDS011;5883;48.818;9.114;2023-11-21T09:55:10;1.30;;;1.20;;
11653;SDS011;5883;48.818;9.114;2023-11-21T09:57:59;1.02;;;0.93;;
11653;SDS011;5883;48.818;9.114;2023-11-21T10:00:52;1.45;;;1.10;;
11653;SDS011;5883;48.818;9.114;2023-11-21T10:03:38;1.05;;;0.95;;
11653;SDS011;5883;48.818;9.114;2023-11-21T10:06:26;1.05;;;1.00;;
11653;SDS011;5883;48.818;9.114;2023-11-21T10:09:12;2.30;;;1.00;;
11653;SDS011;5883;48.818;9.114;2023-11-21T10:11:59;2.28;;;1.70;;
11653;SDS011;5883;48.818;9.114;2023-11-21T10:14:47;3.53;;;1.20;;
11653;SDS011;5883;48.818;9.114;2023-11-21T10:17:33;0.82;;;0.82;;
11653;SDS011;5883;48.818;9.114;2023-11-21T10:20:26;0.98;;;0.88;;
11653;SDS011;5883;48.818;9.114;2023-11-21T10:23:13;0.90;;;0.90;;
11653;SDS011;5883;48.818;9.114;2023-11-21T10:26:01;1.63;;;1.00;;
11653;SDS011;5883;48.818;9.114;2023-11-21T10:28:54;1.60;;;0.80;;
11653;SDS011;5883;48.818;9.114;2023-11-21T10:31:40;4.65;;;1.10;;
11653;SDS011;5883;48.818;9.114;2023-11-21T10:34:26;3.60;;;1.10;;
11653;SDS011;5883;48.818;9.114;2023-11-21T10:37:11;1.38;;;1.00;;
11653;SDS011;5883;48.818;9.114;2023-11-21T10:39:57;0.90;;;0.90;;
11653;SDS011;5883;48.818;9.114;2023-11-21T10:42:43;1.50;;;1.13;;
11653;SDS011;5883;48.818;9.114;2023-11-21T10:45:30;2.83;;;1.25;;
11653;SDS011;5883;48.818;9.114;2023-11-21T10:48:15;0.90;;;0.90;;
11653;SDS011;5883;48.818;9.114;2023-11-21T10:51:01;1.35;;;1.20;;
11653;SDS011;5883;48.818;9.114;2023-11-21T10:53:51;1.88;;;1.08;;
11653;SDS011;5883;48.818;9.114;2023-11-21T10:56:36;1.40;;;1.20;;
11653;SDS011;5883;48.818;9.114;2023-11-21T10:59:26;1.10;;;1.00;;
11653;SDS011;5883;48.818;9.114;2023-11-21T11:02:16;1.80;;;1.42;;
11653;SDS011;5883;48.818;9.114;2023-11-21T11:05:05;1.73;;;1.25;;
11653;SDS011;5883;48.818;9.114;2023-11-21T11:07:57;1.50;;;1.25;;
11653;SDS011;5883;48.818;9.114;2023-11-21T11:10:45;3.05;;;1.48;;
11653;SDS011;5883;48.818;9.114;2023-11-21T11:13:31;2.15;;;1.30;;
11653;SDS011;5883;48.818;9.114;2023-11-21T11:16:18;4.15;;;1.65;;
11653;SDS011;5883;48.818;9.114;2023-11-21T11:19:03;2.17;;;1.50;;
11653;SDS011;5883;48.818;9.114;2023-11-21T11:21:50;2.80;;;1.30;;
11653;SDS011;5883;48.818;9.114;2023-11-21T11:27:48;2.13;;;1.83;;
11653;SDS011;5883;48.818;9.114;2023-11-21T11:30:40;2.17;;;1.45;;
11653;SDS011;5883;48.818;9.114;2023-11-21T11:33:29;2.00;;;1.45;;
11653;SDS011;5883;48.818;9.114;2023-11-21T11:36:17;1.70;;;1.60;;
11653;SDS011;5883;48.818;9.114;2023-11-21T11:42:07;1.80;;;1.38;;
11653;SDS011;5883;48.818;9.114;2023-11-21T11:44:52;5.85;;;2.60;;
11653;SDS011;5883;48.818;9.114;2023-11-21T11:47:39;1.98;;;1.80;;
11653;SDS011;5883;48.818;9.114;2023-11-21T11:50:25;2.20;;;1.50;;
11653;SDS011;5883;48.818;9.114;2023-11-21T11:53:14;1.60;;;1.50;;
11653;SDS011;5883;48.818;9.114;2023-11-21T11:56:10;1.45;;;1.20;;
11653;SDS011;5883;48.818;9.114;2023-11-21T11:59:04;1.65;;;1.40;;
11653;SDS011;5883;48.818;9.114;2023-11-21T12:01:50;2.20;;;1.30;;
11653;SDS011;5883;48.818;9.114;2023-11-21T12:04:36;1.58;;;1.30;;
11653;SDS011;5883;48.818;9.114;2023-11-21T12:07:32;1.92;;;1.20;;
11653;SDS011;5883;48.818;9.114;2023-11-21T12:10:24;0.90;;;0.90;;
11653;SDS011;5883;48.818;9.114;2023-11-21T12:13:10;1.25;;;1.15;;
11653;SDS011;5883;48.818;9.114;2023-11-21T12:15:57;0.80;;;0.80;;
11653;SDS011;5883;48.818;9.114;2023-11-21T12:18:43;0.90;;;0.90;;
11653;SDS011;5883;48.818;9.114;2023-11-21T12:21:28;1.05;;;0.95;;
11653;SDS011;5883;48.818;9.114;2023-11-21T12:24:17;1.00;;;1.00;;
11653;SDS011;5883;48.818;9.114;2023-11-21T12:27:03;1.70;;;1.00;;
11653;SDS011;5883;48.818;9.114;2023-11-21T12:29:48;1.00;;;1.00;;
11653;SDS011;5883;48.818;9.114;2023-11-21T12:32:33;2.28;;;1.30;;
11653;SDS011;5883;48.818;9.114;2023-11-21T12:35:20;1.27;;;1.17;;
11653;SDS011;5883;48.818;9.114;2023-11-21T12:38:05;1.95;;;1.65;;
11653;SDS011;5883;48.818;9.114;2023-11-21T12:40:53;2.58;;;1.90;;
11653;SDS011;5883;48.818;9.114;2023-11-21T12:43:39;1.38;;;1.27;;
11653;SDS011;5883;48.818;9.114;2023-11-21T12:46:24;1.67;;;1.58;;
11653;SDS011;5883;48.818;9.114;2023-11-21T12:49:12;2.03;;;1.67;;
11653;SDS011;5883;48.818;9.114;2023-11-21T12:52:01;1.85;;;1.75;;
11653;SDS011;5883;48.818;9.114;2023-11-21T12:54:47;1.90;;;1.80;;
11653;SDS011;5883;48.818;9.114;2023-11-21T12:57:34;1.83;;;1.60;;
11653;SDS011;5883;48.818;9.114;2023-11-21T13:00:27;1.50;;;1.40;;
11653;SDS011;5883;48.818;9.114;2023-11-21T13:03:14;1.88;;;1.40;;
11653;SDS011;5883;48.818;9.114;2023-11-21T13:06:01;0.80;;;0.80;;
11653;SDS011;5883;48.818;9.114;2023-11-21T13:08:47;2.10;;;0.80;;
11653;SDS011;5883;48.818;9.114;2023-11-21T13:11:34;0.90;;;0.90;;
11653;SDS011;5883;48.818;9.114;2023-11-21T13:14:22;1.23;;;1.00;;
11653;SDS011;5883;48.818;9.114;2023-11-21T13:17:13;1.15;;;1.05;;
11653;SDS011;5883;48.818;9.114;2023-11-21T13:19:59;5.93;;;1.13;;
11653;SDS011;5883;48.818;9.114;2023-11-21T13:22:49;3.00;;;1.02;;
11653;SDS011;5883;48.818;9.114;2023-11-21T13:25:35;9.88;;;1.20;;
11653;SDS011;5883;48.818;9.114;2023-11-21T13:28:22;10.45;;;1.30;;
11653;SDS011;5883;48.818;9.114;2023-11-21T13:31:11;2.10;;;1.40;;
11653;SDS011;5883;48.818;9.114;2023-11-21T13:34:09;1.95;;;1.50;;
11653;SDS011;5883;48.818;9.114;2023-11-21T13:36:58;7.82;;;1.77;;
11653;SDS011;5883;48.818;9.114;2023-11-21T13:39:44;2.58;;;1.30;;
11653;SDS011;5883;48.818;9.114;2023-11-21T13:42:33;2.28;;;1.50;;
11653;SDS011;5883;48.818;9.114;2023-11-21T13:45:19;3.10;;;1.55;;
11653;SDS011;5883;48.818;9.114;2023-11-21T13:48:07;2.20;;;1.40;;
11653;SDS011;5883;48.818;9.114;2023-11-21T13:50:54;3.17;;;2.03;;
11653;SDS011;5883;48.818;9.114;2023-11-21T13:53:42;2.17;;;1.60;;
11653;SDS011;5883;48.818;9.114;2023-11-21T13:56:27;1.92;;;1.67;;
11653;SDS011;5883;48.818;9.114;2023-11-21T13:59:13;2.03;;;1.70;;
11653;SDS011;5883;48.818;9.114;2023-11-21T14:02:04;2.97;;;1.70;;
11653;SDS011;5883;48.818;9.114;2023-11-21T14:05:02;2.05;;;1.50;;
11653;SDS011;5883;48.818;9.114;2023-11-21T14:07:53;3.60;;;2.17;;
11653;SDS011;5883;48.818;9.114;2023-11-21T14:10:40;2.58;;;1.60;;
11653;SDS011;5883;48.818;9.114;2023-11-21T14:13:27;2.60;;;1.67;;
11653;SDS011;5883;48.818;9.114;2023-11-21T14:16:12;1.83;;;1.60;;
11653;SDS011;5883;48.818;9.114;2023-11-21T14:18:57;4.10;;;1.63;;
11653;SDS011;5883;48.818;9.114;2023-11-21T14:21:53;2.53;;;1.80;;
11653;SDS011;5883;48.818;9.114;2023-11-21T14:24:39;3.80;;;1.90;;
11653;SDS011;5883;48.818;9.114;2023-11-21T14:27:27;1.85;;;1.70;;
11653;SDS011;5883;48.818;9.114;2023-11-21T14:30:12;3.05;;;1.80;;
11653;SDS011;5883;48.818;9.114;2023-11-21T14:32:58;1.70;;;1.60;;
11653;SDS011;5883;48.818;9.114;2023-11-21T14:35:44;2.63;;;1.85;;
11653;SDS011;5883;48.818;9.114;2023-11-21T14:38:32;2.60;;;1.92;;
11653;SDS011;5883;48.818;9.114;2023-11-21T14:41:17;2.72;;;2.00;;
11653;SDS011;5883;48.818;9.114;2023-11-21T14:44:03;2.13;;;1.80;;
11653;SDS011;5883;48.818;9.114;2023-11-21T14:46:50;2.20;;;1.90;;
11653;SDS011;5883;48.818;9.114;2023-11-21T14:49:41;2.05;;;1.83;;
11653;SDS011;5883;48.818;9.114;2023-11-21T14:52:36;2.85;;;2.00;;
11653;SDS011;5883;48.818;9.114;2023-11-21T14:55:34;2.53;;;2.10;;
11653;SDS011;5883;48.818;9.114;2023-11-21T14:58:34;1.95;;;1.67;;
11653;SDS011;5883;48.818;9.114;2023-11-21T15:01:21;3.08;;;2.10;;
11653;SDS011;5883;48.818;9.114;2023-11-21T15:04:18;2.13;;;1.92;;
11653;SDS011;5883;48.818;9.114;2023-11-21T15:07:15;1.88;;;1.77;;
11653;SDS011;5883;48.818;9.114;2023-11-21T15:10:01;2.30;;;2.00;;
11653;SDS011;5883;48.818;9.114;2023-11-21T15:12:49;2.80;;;2.17;;
11653;SDS011;5883;48.818;9.114;2023-11-21T15:15:33;2.85;;;2.40;;
11653;SDS011;5883;48.818;9.114;2023-11-21T15:18:20;3.50;;;2.40;;
11653;SDS011;5883;48.818;9.114;2023-11-21T15:21:05;5.40;;;2.38;;
11653;SDS011;5883;48.818;9.114;2023-11-21T15:23:54;2.70;;;2.28;;
11653;SDS011;5883;48.818;9.114;2023-11-21T15:26:39;3.03;;;2.30;;
11653;SDS011;5883;48.818;9.114;2023-11-21T15:29:28;2.50;;;2.25;;
11653;SDS011;5883;48.818;9.114;2023-11-21T15:32:13;4.28;;;2.90;;
11653;SDS011;5883;48.818;9.114;2023-11-21T15:34:58;3.28;;;2.75;;
11653;SDS011;5883;48.818;9.114;2023-11-21T15:37:43;6.28;;;3.25;;
11653;SDS011;5883;48.818;9.114;2023-11-21T15:40:34;4.82;;;2.60;;
11653;SDS011;5883;48.818;9.114;2023-11-21T15:43:19;3.70;;;2.70;;
11653;SDS011;5883;48.818;9.114;2023-11-21T15:46:06;3.00;;;2.70;;
11653;SDS011;5883;48.818;9.114;2023-11-21T15:48:52;13.18;;;2.95;;
11653;SDS011;5883;48.818;9.114;2023-11-21T15:51:38;4.35;;;3.90;;
11653;SDS011;5883;48.818;9.114;2023-11-21T15:54:23;5.15;;;3.42;;
11653;SDS011;5883;48.818;9.114;2023-11-21T15:57:11;7.80;;;3.75;;
11653;SDS011;5883;48.818;9.114;2023-11-21T15:59:58;3.10;;;2.80;;
11653;SDS011;5883;48.818;9.114;2023-11-21T16:02:44;6.57;;;3.28;;
11653;SDS011;5883;48.818;9.114;2023-11-21T16:05:30;5.82;;;4.00;;
11653;SDS011;5883;48.818;9.114;2023-11-21T16:08:14;4.43;;;3.47;;
11653;SDS011;5883;48.818;9.114;2023-11-21T16:11:01;5.38;;;3.25;;
11653;SDS011;5883;48.818;9.114;2023-11-21T16:13:47;4.32;;;3.50;;
11653;SDS011;5883;48.818;9.114;2023-11-21T16:16:33;4.00;;;3.42;;
11653;SDS011;5883;48.818;9.114;2023-11-21T16:19:20;5.25;;;3.67;;
11653;SDS011;5883;48.818;9.114;2023-11-21T16:22:05;6.03;;;4.35;;
11653;SDS011;5883;48.818;9.114;2023-11-21T16:24:50;6.65;;;4.10;;
11653;SDS011;5883;48.818;9.114;2023-11-21T16:27:35;5.53;;;3.55;;
11653;SDS011;5883;48.818;9.114;2023-11-21T16:30:20;6.03;;;4.45;;
11653;SDS011;5883;48.818;9.114;2023-11-21T16:33:07;5.88;;;4.35;;
11653;SDS011;5883;48.818;9.114;2023-11-21T16:35:56;5.47;;;4.30;;
11653;SDS011;5883;48.818;9.114;2023-11-21T16:38:43;5.50;;;5.00;;
11653;SDS011;5883;48.818;9.114;2023-11-21T16:41:31;8.20;;;5.22;;
11653;SDS011;5883;48.818;9.114;2023-11-21T16:44:17;6.35;;;4.65;;
11653;SDS011;5883;48.818;9.114;2023-11-21T16:47:02;5.40;;;4.78;;
11653;SDS011;5883;48.818;9.114;2023-11-21T16:49:52;7.57;;;4.97;;
11653;SDS011;5883;48.818;9.114;2023-11-21T16:52:39;5.07;;;4.57;;
11653;SDS011;5883;48.818;9.114;2023-11-21T16:55:27;8.90;;;5.22;;
11653;SDS011;5883;48.818;9.114;2023-11-21T16:58:12;6.70;;;5.28;;
11653;SDS011;5883;48.818;9.114;2023-11-21T17:00:57;6.93;;;6.15;;
11653;SDS011;5883;48.818;9.114;2023-11-21T17:03:42;8.40;;;5.03;;
11653;SDS011;5883;48.818;9.114;2023-11-21T17:06:28;5.43;;;4.78;;